Terminal Aerodrome Forecast
Issued by NWS

Home | Current Version | Previous Version | Text Only | Print | Product List | Glossary On
Versions: 1 2 3 4 5 6 7 8 9 10 11 12 13
000
FTUS46 KSEW 081742
TAFPAE
TAF
KPAE 081742Z 0818/0918 06007KT P6SM BKN200
     FM082300 08011G20KT P6SM SCT120 OVC200
     FM090500 11013G21KT P6SM -SN SCT025 OVC045
     FM090700 13012KT 3SM -SN SCT012 OVC030
      TEMPO 0907/0909 1SM -SN OVC012
     FM091100 15011G20KT P6SM -RA OVC025=

USA.gov is the U.S. government's official web portal to all federal, state and local government web resources and services.